Time;durP1;ratioP1;P1;durP2;ratioP2;P2;SDS_P1;SDS_P2;PMS_P1;PMS_P2;Temp;Humidity;BMP_temperature;BMP_pressure;BME280_temperature;BME280_humidity;BME280_pressure;Samples;Min_cycle;Max_cycle;Signal;HPM_P1;HPM_P2
2023/05/30 03:21:04;;;;;;;;;;;;;;;6.08;100.00;100052.41;6149014;23;19939;-86
2023/05/30 03:23:30;;;;;;;;;;;;;;;6.06;100.00;100056.84;6128799;23;20272;-87
2023/05/30 03:25:55;;;;;;;;;;;;;;;6.07;100.00;100058.56;6128920;23;19924;-87
2023/05/30 03:28:21;;;;;;;;;;;;;;;6.03;100.00;100057.78;6128944;23;19920;-85
2023/05/30 03:30:46;;;;;;;;;;;;;;;6.02;100.00;100063.06;6128798;23;19921;-91
2023/05/30 03:33:13;;;;;;;;;;;;;;;6.06;100.00;100062.09;6128574;23;20185;-88
2023/05/30 03:35:38;;;;;;;;;;;;;;;6.01;100.00;100062.19;6127676;23;19971;-90
2023/05/30 03:38:03;;;;;;;;;;;;;;;6.05;100.00;100055.09;6129328;23;20232;-88
2023/05/30 03:40:29;;;;;;;;;;;;;;;6.06;100.00;100059.47;6154924;23;20013;-87
2023/05/30 03:42:55;;;;;;;;;;;;;;;6.06;100.00;100056.84;6128792;23;19916;-89
2023/05/30 03:45:20;;;;;;;;;;;;;;;6.07;100.00;100062.06;6122454;23;19912;-89
2023/05/30 03:47:45;;;;;;;;;;;;;;;6.02;100.00;100061.28;6128852;23;19924;-91
2023/05/30 03:50:13;;;;;;;;;;;;;;;6.02;100.00;100057.81;6153848;23;19910;-91
2023/05/30 03:52:38;;;;;;;;;;;;;;;6.00;100.00;100058.69;6148972;23;20367;-89
2023/05/30 03:55:03;;;;;;;;;;;;;;;6.07;100.00;100056.81;6155062;23;20171;-89
2023/05/30 03:57:29;;;;;;;;;;;;;;;6.08;100.00;100062.91;6128981;23;20355;-92
2023/05/30 03:59:54;;;;;;;;;;;;;;;6.04;100.00;100061.25;6129072;23;19968;-89
2023/05/30 04:02:20;;;;;;;;;;;;;;;5.99;100.00;100064.84;6129176;23;19909;-91
2023/05/30 04:04:45;;;;;;;;;;;;;;;5.95;100.00;100067.53;6127495;23;19916;-87
2023/05/30 04:07:10;;;;;;;;;;;;;;;6.00;100.00;100066.59;6128621;23;19916;-90
2023/05/30 04:09:35;;;;;;;;;;;;;;;5.96;100.00;100072.78;6154821;23;19923;-89
2023/05/30 04:12:01;;;;;;;;;;;;;;;5.97;100.00;100074.53;6128499;23;20318;-89
2023/05/30 04:14:26;;;;;;;;;;;;;;;6.09;100.00;100069.94;6128707;23;19916;-89
2023/05/30 04:16:51;;;;;;;;;;;;;;;6.10;100.00;100066.41;6128622;23;19912;-89
2023/05/30 04:19:17;;;;;;;;;;;;;;;5.97;100.00;100079.78;6127032;23;20011;-89
2023/05/30 04:21:42;;;;;;;;;;;;;;;5.98;100.00;100072.75;6154599;23;19916;-89
2023/05/30 04:24:07;;;;;;;;;;;;;;;5.99;100.00;100071.88;6154474;23;20234;-89
2023/05/30 04:26:33;;;;;;;;;;;;;;;5.89;100.00;100076.41;6130372;23;19913;-89
2023/05/30 04:28:58;;;;;;;;;;;;;;;5.91;100.00;100089.53;6130439;23;20214;-90
2023/05/30 04:31:24;;;;;;;;;;;;;;;5.91;100.00;100085.13;6130525;23;19920;-89
2023/05/30 04:33:54;;;;;;;;;;;;;;;5.97;100.00;100082.44;6128791;23;20333;-88
2023/05/30 04:36:19;;;;;;;;;;;;;;;5.91;100.00;100090.41;6130673;23;19928;-90
2023/05/30 04:38:49;;;;;;;;;;;;;;;5.96;100.00;100087.69;6130756;23;19913;-91
2023/05/30 04:41:24;;;;;;;;;;;;;;;6.02;100.00;100092.88;6130629;23;19920;-91
2023/05/30 04:43:54;;;;;;;;;;;;;;;6.07;100.00;100092.78;6130467;23;20351;-91
2023/05/30 07:46:35;;;;;;;;;;;;;;;13.34;100.00;100159.28;6123894;23;19972;-84
2023/05/30 07:49:00;;;;;;;;;;;;;;;8.21;100.00;100173.94;6124452;23;19917;-91
2023/05/30 07:51:28;;;;;;;;;;;;;;;7.19;100.00;100176.44;6124590;23;19917;-85
2023/05/30 07:54:30;;;;;;;;;;;;;;;6.83;100.00;100176.34;6124404;23;20347;-92
2023/05/30 07:56:58;;;;;;;;;;;;;;;6.69;100.00;100174.88;6065397;23;19950;-86
2023/05/30 07:59:23;;;;;;;;;;;;;;;6.62;100.00;100170.66;6123304;23;20300;-88
2023/05/30 08:01:51;;;;;;;;;;;;;;;6.49;100.00;100175.28;6126508;23;20040;-88
2023/05/30 08:04:20;;;;;;;;;;;;;;;6.47;100.00;100177.06;6125236;23;19916;-88
2023/05/30 08:06:48;;;;;;;;;;;;;;;6.45;100.00;100172.75;6100831;23;20269;-88
2023/05/30 08:09:28;;;;;;;;;;;;;;;6.39;100.00;100164.97;6126817;23;20333;-89
2023/05/30 08:12:04;;;;;;;;;;;;;;;;;;;;;
2023/05/30 08:14:32;;;;;;;;;;;;;;;6.40;100.00;100174.56;6124963;23;19995;-88
2023/05/30 08:17:02;;;;;;;;;;;;;;;6.41;100.00;100171.91;6124913;23;19928;-88
2023/05/30 08:19:27;;;;;;;;;;;;;;;6.32;100.00;100167.72;6126814;23;19991;-88
2023/05/30 08:21:55;;;;;;;;;;;;;;;6.33;100.00;100169.47;6126738;23;19949;-88
2023/05/30 08:25:04;;;;;;;;;;;;;;;6.29;100.00;100165.13;6127288;23;19967;-90
2023/05/30 08:27:37;;;;;;;;;;;;;;;6.17;100.00;100168.88;6125058;23;19921;-88
2023/05/30 08:30:05;;;;;;;;;;;;;;;6.17;100.00;100168.00;6125586;23;20245;-86
2023/05/30 08:32:39;;;;;;;;;;;;;;;6.18;100.00;100164.47;6126111;23;19920;-86
2023/05/30 08:35:10;;;;;;;;;;;;;;;6.24;100.00;100163.47;6126101;23;19945;-86
2023/05/30 08:37:38;;;;;;;;;;;;;;;6.22;100.00;100168.78;6101752;23;19924;-88
2023/05/30 08:42:33;;;;;;;;;;;;;;;6.20;100.00;100165.31;6182609;23;19924;-87
2023/05/30 08:44:58;;;;;;;;;;;;;;;6.23;100.00;100169.66;6159030;23;19971;-88
2023/05/30 08:47:24;;;;;;;;;;;;;;;6.29;100.00;100165.13;6160187;23;19916;-87
2023/05/30 08:49:51;;;;;;;;;;;;;;;6.21;100.00;100163.53;6185779;23;19912;-86
2023/05/30 08:52:16;;;;;;;;;;;;;;;6.23;100.00;100161.75;6186257;23;19919;-87
2023/05/30 08:55:08;;;;;;;;;;;;;;;;;;;;;
2023/05/30 08:58:08;;;;;;;;;;;;;;;6.34;100.00;100171.16;6185602;23;20287;-88
2023/05/30 09:00:38;;;;;;;;;;;;;;;6.28;100.00;100159.91;6186586;23;19947;-87
2023/05/30 09:03:10;;;;;;;;;;;;;;;6.30;100.00;100159.00;6184709;23;19919;-87
2023/05/30 09:05:48;;;;;;;;;;;;;;;;;;;;;
2023/05/30 09:08:26;;;;;;;;;;;;;;;6.28;100.00;100154.63;6185681;23;19999;-89
2023/05/30 09:16:57;;;;;;;;;;;;;;;6.20;100.00;100151.28;6184131;23;19920;-87
2023/05/30 09:22:59;;;;;;;;;;;;;;;6.19;100.00;100145.16;6065526;23;19945;-86
2023/05/30 09:25:59;;;;;;;;;;;;;;;;;;;;;
2023/05/30 09:28:54;;;;;;;;;;;;;;;6.27;100.00;100155.53;6184898;23;20286;-89
2023/05/30 09:31:28;;;;;;;;;;;;;;;6.28;100.00;100142.34;6186297;23;19919;-93
2023/05/30 09:37:50;;;;;;;;;;;;;;;6.20;100.00;100153.94;5980513;23;19914;-91
2023/05/30 09:40:40;;;;;;;;;;;;;;;6.27;100.00;100156.41;5977377;24;19924;-90
2023/05/30 09:46:47;;;;;;;;;;;;;;;;;;;;;
2023/05/30 09:52:58;;;;;;;;;;;;;;;;;;;;;
2023/05/30 09:58:49;;;;;;;;;;;;;;;6.19;100.00;100166.22;5842036;24;20326;-90
2023/05/30 10:07:32;;;;;;;;;;;;;;;6.24;100.00;100153.84;5980265;23;20247;-89
2023/05/30 10:13:26;;;;;;;;;;;;;;;6.44;100.00;100158.69;6036489;23;20015;-88
2023/05/30 10:19:26;;;;;;;;;;;;;;;6.30;100.00;100159.00;6077404;23;19923;-89
2023/05/30 10:22:27;;;;;;;;;;;;;;;6.40;100.00;100158.78;6025914;23;20290;-90
2023/05/30 10:24:53;;;;;;;;;;;;;;;6.32;100.00;100151.91;5992595;23;19917;-85
2023/05/30 10:27:45;;;;;;;;;;;;;;;6.35;100.00;100141.34;6082897;23;19916;-86
2023/05/30 10:30:15;;;;;;;;;;;;;;;8.13;100.00;100137.19;6183709;23;19916;-87
2023/05/30 10:32:43;;;;;;;;;;;;;;;9.56;100.00;100132.91;6184179;23;20324;-85
2023/05/30 10:35:20;;;;;;;;;;;;;;;;;;;;;
2023/05/30 10:40:43;;;;;;;;;;;;;;;7.96;100.00;100130.59;6184330;23;19923;-88
2023/05/30 10:43:43;;;;;;;;;;;;;;;7.76;100.00;100131.09;6156370;23;20253;-87
2023/05/30 10:53:00;;;;;;;;;;;;;;;;;;;;;
2023/05/30 10:58:53;;;;;;;;;;;;;;;;;;;;;
2023/05/30 11:01:25;;;;;;;;;;;;;;;7.17;100.00;100120.28;6183975;23;19995;-87
2023/05/30 11:04:08;;;;;;;;;;;;;;;7.18;100.00;100116.72;6184440;23;20172;-87
2023/05/30 11:06:57;;;;;;;;;;;;;;;7.11;100.00;100120.41;6184861;23;19912;-86
2023/05/30 11:09:28;;;;;;;;;;;;;;;6.97;100.00;100113.66;6183104;23;19954;-89
2023/05/30 11:12:05;;;;;;;;;;;;;;;7.18;100.00;100111.44;6183596;23;19920;-86
2023/05/30 11:14:45;;;;;;;;;;;;;;;7.19;100.00;100107.91;6156781;23;19912;-87
2023/05/30 11:17:12;;;;;;;;;;;;;;;7.03;100.00;100108.25;6158065;23;19932;-86
2023/05/30 11:19:38;;;;;;;;;;;;;;;7.19;100.00;100100.88;6183259;23;19995;-85
2023/05/30 11:22:15;;;;;;;;;;;;;;;6.88;100.00;100093.69;6183683;23;20347;-86
2023/05/30 11:24:43;;;;;;;;;;;;;;;7.18;100.00;100100.91;6157355;23;19991;-87
2023/05/30 11:27:13;;;;;;;;;;;;;;;7.61;100.00;100094.56;6157358;23;19947;-86
2023/05/30 11:29:43;;;;;;;;;;;;;;;7.00;100.00;100091.66;6183265;23;19959;-86
2023/05/30 11:32:11;;;;;;;;;;;;;;;6.89;100.00;100091.91;6183502;23;19920;-89
2023/05/30 11:34:40;;;;;;;;;;;;;;;6.66;100.00;100082.75;6183899;23;19919;-84
2023/05/30 11:37:10;;;;;;;;;;;;;;;6.94;100.00;100081.25;6184102;23;19919;-86
2023/05/30 11:39:36;;;;;;;;;;;;;;;7.26;100.00;100086.66;6183313;23;20392;-86
2023/05/30 11:42:02;;;;;;;;;;;;;;;6.85;100.00;100071.81;6156731;23;19912;-87
2023/05/30 11:44:31;;;;;;;;;;;;;;;6.98;100.00;100075.03;6156068;23;19913;-85
2023/05/30 11:47:04;;;;;;;;;;;;;;;7.22;100.00;100066.53;6158156;23;19912;-86
2023/05/30 11:49:33;;;;;;;;;;;;;;;7.16;100.00;100065.81;6158103;23;19916;-85
2023/05/30 11:51:59;;;;;;;;;;;;;;;6.76;100.00;100061.50;6185027;23;19940;-87
2023/05/30 11:54:25;;;;;;;;;;;;;;;7.32;100.00;100053.13;6158455;23;19916;-86
2023/05/30 11:56:50;;;;;;;;;;;;;;;7.04;100.00;100059.09;6157969;23;20343;-84
2023/05/30 11:59:22;;;;;;;;;;;;;;;7.06;100.00;100060.75;6181755;23;19912;-86
2023/05/30 12:01:55;;;;;;;;;;;;;;;7.09;100.00;100060.69;6184054;23;19912;-86
2023/05/30 12:04:31;;;;;;;;;;;;;;;7.35;100.00;100061.81;6158044;23;19916;-85
2023/05/30 12:06:59;;;;;;;;;;;;;;;6.91;100.00;100061.16;6158126;23;19916;-86
2023/05/30 12:09:24;;;;;;;;;;;;;;;6.86;100.00;100063.00;6157400;23;20292;-86
2023/05/30 12:11:55;;;;;;;;;;;;;;;7.32;100.00;100053.97;6183122;23;19960;-83
2023/05/30 12:14:26;;;;;;;;;;;;;;;7.19;100.00;100055.19;6155415;23;19920;-86
2023/05/30 12:16:56;;;;;;;;;;;;;;;6.96;100.00;100055.78;6157692;23;19916;-85
2023/05/30 12:19:25;;;;;;;;;;;;;;;7.07;100.00;100054.59;6183835;23;19912;-86
2023/05/30 12:21:51;;;;;;;;;;;;;;;6.99;100.00;100053.94;6184068;23;19994;-85
2023/05/30 12:24:18;;;;;;;;;;;;;;;6.95;100.00;100049.63;6182988;23;20244;-86
2023/05/30 12:26:50;;;;;;;;;;;;;;;6.91;100.00;100055.88;6157288;23;19964;-85
2023/05/30 12:29:15;;;;;;;;;;;;;;;6.98;100.00;100046.91;6182080;23;19912;-86
2023/05/30 12:32:01;;;;;;;;;;;;;;;6.76;100.00;100040.44;6155932;23;19935;-91
2023/05/30 12:34:48;;;;;;;;;;;;;;;7.31;100.00;100054.03;6183215;23;19912;-87
2023/05/30 12:37:14;;;;;;;;;;;;;;;6.95;100.00;100041.72;6184351;23;19918;-85
2023/05/30 12:40:18;;;;;;;;;;;;;;;6.85;100.00;100046.34;6183888;23;19947;-86
2023/05/30 12:42:45;;;;;;;;;;;;;;;6.83;100.00;100036.72;6011822;23;20363;-86
2023/05/30 12:45:11;;;;;;;;;;;;;;;7.08;100.00;100040.53;6034258;23;19921;-86
2023/05/30 12:47:36;;;;;;;;;;;;;;;7.09;100.00;100031.72;6174174;23;20214;-86
2023/05/30 12:50:02;;;;;;;;;;;;;;;7.00;100.00;100045.09;6157850;23;19912;-86
2023/05/30 12:52:28;;;;;;;;;;;;;;;6.71;100.00;100033.47;6185011;23;19916;-86
2023/05/30 12:54:53;;;;;;;;;;;;;;;7.11;100.00;100038.72;6185675;23;19918;-86
2023/05/30 12:57:19;;;;;;;;;;;;;;;7.33;100.00;100032.00;6159999;23;19931;-85
2023/05/30 12:59:45;;;;;;;;;;;;;;;7.45;100.00;100038.72;6157227;23;19940;-86
2023/05/30 13:02:10;;;;;;;;;;;;;;;7.36;100.00;100039.84;6184183;23;19924;-85
2023/05/30 13:04:39;;;;;;;;;;;;;;;7.40;100.00;100043.25;6184643;23;19924;-85
2023/05/30 13:07:08;;;;;;;;;;;;;;;7.18;100.00;100051.72;6185158;23;20299;-86
2023/05/30 13:12:19;;;;;;;;;;;;;;;7.36;100.00;100031.06;6161603;23;19920;-86
2023/05/30 13:14:54;;;;;;;;;;;;;;;7.31;100.00;100033.81;6157601;23;19919;-87
2023/05/30 13:17:22;;;;;;;;;;;;;;;7.63;100.00;100024.19;6185786;23;20217;-86
2023/05/30 13:19:48;;;;;;;;;;;;;;;7.66;100.00;100028.50;6184591;23;19920;-86
2023/05/30 13:22:13;;;;;;;;;;;;;;;7.23;100.00;100017.34;6185772;23;20294;-86
2023/05/30 13:24:39;;;;;;;;;;;;;;;7.28;100.00;100031.25;6158509;23;19912;-86
2023/05/30 13:27:06;;;;;;;;;;;;;;;7.27;100.00;100025.13;6185296;23;20325;-85
2023/05/30 13:29:31;;;;;;;;;;;;;;;7.54;100.00;100019.16;6184138;23;19966;-86
2023/05/30 13:31:59;;;;;;;;;;;;;;;7.27;100.00;100026.88;6184763;23;19959;-86
2023/05/30 13:34:26;;;;;;;;;;;;;;;6.88;100.00;100019.06;6185179;23;19986;-86
2023/05/30 13:37:02;;;;;;;;;;;;;;;7.63;100.00;100019.78;6159182;23;19916;-86
2023/05/30 13:39:27;;;;;;;;;;;;;;;7.44;100.00;100011.50;6184049;23;19919;-88
2023/05/30 13:41:53;;;;;;;;;;;;;;;7.80;100.00;100010.53;6184940;23;19943;-85
2023/05/30 13:44:19;;;;;;;;;;;;;;;7.66;100.00;100003.03;6157643;23;19916;-85
2023/05/30 13:46:44;;;;;;;;;;;;;;;7.54;100.00;100006.84;6158100;23;20330;-86
2023/05/30 13:49:09;;;;;;;;;;;;;;;7.00;100.00;100000.31;6158778;23;19920;-85
2023/05/30 13:51:37;;;;;;;;;;;;;;;6.95;100.00;100001.34;6159358;23;19912;-85
2023/05/30 13:54:03;;;;;;;;;;;;;;;7.31;100.00;100006.56;6159017;23;19917;-89
2023/05/30 13:56:29;;;;;;;;;;;;;;;7.35;100.00;100002.97;6185246;23;19912;-86
2023/05/30 13:58:54;;;;;;;;;;;;;;;7.21;100.00;100000.69;6183366;23;20399;-86
2023/05/30 14:01:23;;;;;;;;;;;;;;;7.20;100.00;99991.06;6157827;23;19926;-86
2023/05/30 14:03:50;;;;;;;;;;;;;;;7.14;100.00;99988.56;6184359;23;19913;-85
2023/05/30 14:06:21;;;;;;;;;;;;;;;6.96;100.00;99982.00;6158868;23;20430;-86
2023/05/30 14:08:46;;;;;;;;;;;;;;;6.96;100.00;99993.41;6159014;23;20256;-85
2023/05/30 14:11:15;;;;;;;;;;;;;;;6.85;100.00;99992.81;6184873;23;19923;-85
2023/05/30 14:13:41;;;;;;;;;;;;;;;7.35;100.00;99988.00;6183696;23;19951;-85
2023/05/30 14:16:06;;;;;;;;;;;;;;;7.24;100.00;99988.31;6157811;23;20368;-86
2023/05/30 14:18:34;;;;;;;;;;;;;;;7.20;100.00;99980.53;6158770;23;20529;-85
2023/05/30 14:21:01;;;;;;;;;;;;;;;7.37;100.00;99990.59;6185179;23;19946;-86
2023/05/30 14:23:27;;;;;;;;;;;;;;;7.18;100.00;99987.56;6159257;23;19912;-86
2023/05/30 14:25:52;;;;;;;;;;;;;;;6.99;100.00;99982.78;6182638;23;20329;-86
2023/05/30 14:28:17;;;;;;;;;;;;;;;6.79;100.00;99983.28;6183400;23;19916;-85
2023/05/30 14:30:53;;;;;;;;;;;;;;;;;;;;;
2023/05/30 14:33:18;;;;;;;;;;;;;;;7.05;100.00;99977.38;6184245;23;20003;-85
2023/05/30 14:35:46;;;;;;;;;;;;;;;7.15;100.00;99978.00;6184477;23;19955;-88
2023/05/30 14:38:14;;;;;;;;;;;;;;;7.35;100.00;99977.47;6184254;23;19920;-87
2023/05/30 14:40:40;;;;;;;;;;;;;;;6.87;100.00;99975.19;6157219;23;19944;-90
2023/05/30 14:43:09;;;;;;;;;;;;;;;6.73;100.00;99970.25;6156636;23;20557;-87
2023/05/30 14:45:39;;;;;;;;;;;;;;;6.94;100.00;99979.41;6157936;23;19983;-86
2023/05/30 14:48:15;;;;;;;;;;;;;;;6.72;100.00;99972.03;6158793;23;19919;-87
2023/05/30 14:50:40;;;;;;;;;;;;;;;6.79;100.00;99977.16;6158517;23;20252;-88
2023/05/30 14:53:06;;;;;;;;;;;;;;;6.93;100.00;99974.19;6184466;23;19912;-87
2023/05/30 14:55:32;;;;;;;;;;;;;;;6.78;100.00;99972.78;6185164;23;20232;-88
2023/05/30 14:58:02;;;;;;;;;;;;;;;6.65;100.00;99975.72;6157626;23;19916;-86
2023/05/30 15:00:28;;;;;;;;;;;;;;;7.21;100.00;99982.22;6183587;23;19920;-86
2023/05/30 15:02:59;;;;;;;;;;;;;;;7.02;100.00;99980.09;6157680;23;20237;-86
2023/05/30 15:05:31;;;;;;;;;;;;;;;6.87;100.00;99976.03;6156975;23;20613;-88
2023/05/30 15:07:59;;;;;;;;;;;;;;;7.01;100.00;99982.75;6183323;23;19918;-86
2023/05/30 15:10:26;;;;;;;;;;;;;;;6.92;100.00;99973.28;6183556;23;20218;-87
2023/05/30 15:12:59;;;;;;;;;;;;;;;6.83;100.00;99989.31;6158245;23;19917;-86
2023/05/30 15:15:24;;;;;;;;;;;;;;;7.29;100.00;99982.88;6156221;23;19920;-87
2023/05/30 15:17:52;;;;;;;;;;;;;;;7.31;100.00;99980.22;6184350;23;20243;-86
2023/05/30 15:20:20;;;;;;;;;;;;;;;6.90;100.00;99986.50;6182760;23;20248;-86
2023/05/30 15:22:45;;;;;;;;;;;;;;;6.98;100.00;99986.31;6182974;23;20355;-86
2023/05/30 15:25:13;;;;;;;;;;;;;;;7.19;100.00;99986.69;6184179;23;19913;-87
2023/05/30 15:27:46;;;;;;;;;;;;;;;6.94;100.00;99991.69;6183659;23;19920;-86
2023/05/30 15:30:22;;;;;;;;;;;;;;;;;;;;;
2023/05/30 15:32:59;;;;;;;;;;;;;;;;;;;;;
2023/05/30 15:35:45;;;;;;;;;;;;;;;6.87;100.00;99981.31;6184927;23;20371;-87
2023/05/30 15:38:20;;;;;;;;;;;;;;;6.99;100.00;99974.88;6184583;23;19916;-90
2023/05/30 15:41:11;;;;;;;;;;;;;;;6.57;100.00;99972.38;6184137;23;19912;-89
2023/05/30 15:43:41;;;;;;;;;;;;;;;6.75;100.00;99975.47;6182651;23;20296;-88
2023/05/30 15:49:14;;;;;;;;;;;;;;;6.93;100.00;99972.41;6091977;23;20318;-90
2023/05/30 15:54:51;;;;;;;;;;;;;;;;;;;;;
2023/05/30 15:57:19;;;;;;;;;;;;;;;6.66;100.00;99985.31;6093315;23;20003;-87
2023/05/30 16:00:10;;;;;;;;;;;;;;;7.07;100.00;99980.81;6067733;23;19924;-86
2023/05/30 16:02:41;;;;;;;;;;;;;;;6.90;100.00;99985.66;6050410;23;19918;-87
2023/05/30 16:05:16;;;;;;;;;;;;;;;6.85;100.00;99977.00;6066953;23;19930;-87
2023/05/30 16:07:57;;;;;;;;;;;;;;;;;;;;;
2023/05/30 16:10:46;;;;;;;;;;;;;;;6.92;100.00;99973.28;6182386;23;20101;-87
2023/05/30 16:13:15;;;;;;;;;;;;;;;7.36;100.00;99971.28;6180157;23;19925;-88
2023/05/30 16:15:40;;;;;;;;;;;;;;;7.52;100.00;99973.53;6182141;23;19926;-89
2023/05/30 16:18:11;;;;;;;;;;;;;;;7.43;100.00;99975.47;6182941;23;19948;-87
2023/05/30 16:21:10;;;;;;;;;;;;;;;7.15;100.00;99971.84;6157761;23;19962;-88
2023/05/30 16:23:44;;;;;;;;;;;;;;;7.07;100.00;99972.06;6183536;23;19912;-86
2023/05/30 16:42:35;;;;;;;;;;;;;;;6.99;100.00;99961.72;6178576;23;19963;-84
2023/05/30 16:45:03;;;;;;;;;;;;;;;7.26;100.00;99967.19;6184088;23;19917;-88
2023/05/30 16:47:40;;;;;;;;;;;;;;;7.09;100.00;99960.56;6160418;23;19923;-87
2023/05/30 16:50:31;;;;;;;;;;;;;;;6.91;100.00;99963.69;6186161;23;19912;-91
2023/05/30 16:52:56;;;;;;;;;;;;;;;6.86;100.00;99962.91;6186309;23;19988;-87
2023/05/30 16:55:51;;;;;;;;;;;;;;;6.90;100.00;99977.75;6159191;23;20330;-87
2023/05/30 16:58:36;;;;;;;;;;;;;;;6.70;100.00;99968.56;6183917;23;20375;-88
2023/05/30 17:01:05;;;;;;;;;;;;;;;6.58;100.00;99968.84;6185464;23;20309;-88
2023/05/30 17:03:42;;;;;;;;;;;;;;;6.62;100.00;99967.00;6185534;23;19916;-90
2023/05/30 17:06:23;;;;;;;;;;;;;;;;;;;;;
2023/05/30 17:08:56;;;;;;;;;;;;;;;6.98;100.00;99973.16;6186526;23;20004;-88
2023/05/30 17:11:35;;;;;;;;;;;;;;;;;;;;;
2023/05/30 17:14:06;;;;;;;;;;;;;;;7.23;100.00;99977.81;6184836;23;20003;-87
2023/05/30 17:16:36;;;;;;;;;;;;;;;6.95;100.00;99975.84;6185985;23;19952;-89
2023/05/30 17:19:12;;;;;;;;;;;;;;;;;;;;;
2023/05/30 17:21:47;;;;;;;;;;;;;;;6.84;100.00;99980.53;6186168;23;19995;-89
2023/05/30 17:24:15;;;;;;;;;;;;;;;6.63;100.00;99974.00;6159769;23;19912;-89
2023/05/30 17:26:53;;;;;;;;;;;;;;;;;;;;;
2023/05/30 17:29:46;;;;;;;;;;;;;;;6.65;100.00;99974.84;6185187;23;19987;-89
2023/05/30 17:35:37;;;;;;;;;;;;;;;7.13;100.00;99979.78;6140673;23;20317;-88
2023/05/30 17:38:47;;;;;;;;;;;;;;;6.87;100.00;99981.31;6186070;23;19919;-88
2023/05/30 17:41:11;;;;;;;;;;;;;;;6.76;100.00;99977.22;6170598;23;19912;-88
2023/05/30 17:49:47;;;;;;;;;;;;;;;;;;;;;
2023/05/30 17:52:44;;;;;;;;;;;;;;;7.36;100.00;99983.63;6185359;23;20388;-87
2023/05/30 17:58:12;;;;;;;;;;;;;;;6.85;100.00;99987.53;6165032;23;20004;-88
2023/05/30 18:00:39;;;;;;;;;;;;;;;6.54;100.00;99993.50;6185751;23;20340;-89
2023/05/30 18:03:15;;;;;;;;;;;;;;;;;;;;;
2023/05/30 18:06:14;;;;;;;;;;;;;;;;;;;;;
2023/05/30 18:08:39;;;;;;;;;;;;;;;6.76;100.00;99993.03;6184293;23;19995;-86
2023/05/30 18:11:44;;;;;;;;;;;;;;;;;;;;;
2023/05/30 18:14:37;;;;;;;;;;;;;;;6.88;100.00;99998.84;6184184;23;19987;-87
2023/05/30 18:17:03;;;;;;;;;;;;;;;6.91;100.00;99990.03;6159420;23;19912;-87
2023/05/30 18:19:31;;;;;;;;;;;;;;;6.92;100.00;99997.00;6185362;23;19916;-87
2023/05/30 18:25:22;;;;;;;;;;;;;;;6.58;100.00;99989.91;6064854;23;19917;-89
2023/05/30 18:27:47;;;;;;;;;;;;;;;6.69;100.00;99995.78;6065309;23;19918;-88
2023/05/30 18:30:16;;;;;;;;;;;;;;;6.95;100.00;99999.56;6127736;23;19919;-89
2023/05/30 18:32:46;;;;;;;;;;;;;;;6.67;100.00;99989.72;6184986;23;20003;-88
2023/05/30 18:35:33;;;;;;;;;;;;;;;;;;;;;
2023/05/30 18:38:03;;;;;;;;;;;;;;;6.52;100.00;99990.06;6185263;23;19991;-88
2023/05/30 18:41:01;;;;;;;;;;;;;;;;;;;;;
2023/05/30 18:43:49;;;;;;;;;;;;;;;6.57;100.00;99998.69;6121349;23;20729;-88
2023/05/30 18:46:36;;;;;;;;;;;;;;;6.82;100.00;100006.03;6056651;23;20008;-87
2023/05/30 18:49:39;;;;;;;;;;;;;;;6.70;100.00;99999.28;6099017;23;19917;-87
2023/05/30 18:52:09;;;;;;;;;;;;;;;6.33;100.00;100001.00;6099647;23;19919;-87
2023/05/30 18:54:38;;;;;;;;;;;;;;;6.62;100.00;100003.88;6122799;23;19917;-87
2023/05/30 18:57:25;;;;;;;;;;;;;;;;;;;;;
2023/05/30 18:59:58;;;;;;;;;;;;;;;6.58;100.00;100005.72;6121738;23;20019;-87
2023/05/30 19:02:33;;;;;;;;;;;;;;;6.48;100.00;100005.06;6122669;23;19917;-87
2023/05/30 19:05:11;;;;;;;;;;;;;;;;;;;;;
2023/05/30 19:07:39;;;;;;;;;;;;;;;6.29;100.00;100011.63;6155531;23;20011;-87
2023/05/30 19:10:10;;;;;;;;;;;;;;;6.59;100.00;100007.47;6155580;23;19912;-89
2023/05/30 19:12:48;;;;;;;;;;;;;;;;;;;;;
2023/05/30 19:15:35;;;;;;;;;;;;;;;;;;;;;
2023/05/30 19:18:00;;;;;;;;;;;;;;;6.49;100.00;100006.81;6155603;23;19987;-89
2023/05/30 19:20:48;;;;;;;;;;;;;;;6.49;100.00;99998.03;6155290;23;20274;-88
2023/05/30 19:23:43;;;;;;;;;;;;;;;6.57;100.00;100008.38;6155126;23;20332;-88
2023/05/30 19:26:31;;;;;;;;;;;;;;;6.37;100.00;100001.81;6126906;23;19923;-89
2023/05/30 19:29:24;;;;;;;;;;;;;;;6.39;100.00;99996.50;6131576;23;19912;-89
2023/05/30 19:31:51;;;;;;;;;;;;;;;6.39;100.00;99999.13;6154261;23;20325;-88
2023/05/30 19:34:31;;;;;;;;;;;;;;;6.43;100.00;99993.78;6155084;23;20288;-89
2023/05/30 19:40:19;;;;;;;;;;;;;;;;;;;;;
2023/05/30 19:43:24;;;;;;;;;;;;;;;;;;;;;
2023/05/30 19:46:10;;;;;;;;;;;;;;;;;;;;;
2023/05/30 19:48:46;;;;;;;;;;;;;;;6.48;100.00;100007.69;6184654;23;20003;-88
2023/05/30 19:51:36;;;;;;;;;;;;;;;6.29;100.00;100009.88;6158569;23;19913;-88
2023/05/30 20:06:20;;;;;;;;;;;;;;;;;;;;;
2023/05/30 20:08:57;;;;;;;;;;;;;;;6.34;100.00;100025.56;6035074;23;19996;-88
2023/05/30 20:11:41;;;;;;;;;;;;;;;6.53;100.00;100021.63;6066373;23;19997;-88
2023/05/30 20:14:15;;;;;;;;;;;;;;;6.54;100.00;100019.84;6065155;23;19914;-85
2023/05/30 20:16:50;;;;;;;;;;;;;;;6.51;100.00;100019.91;6066389;23;19914;-90
2023/05/30 20:19:28;;;;;;;;;;;;;;;6.56;100.00;100023.31;6186322;23;19912;-87
2023/05/30 20:22:33;;;;;;;;;;;;;;;;;;;;;
2023/05/30 20:25:20;;;;;;;;;;;;;;;;;;;;;
2023/05/30 20:28:03;;;;;;;;;;;;;;;6.38;100.00;100031.63;6186157;23;19995;-87
2023/05/30 20:30:37;;;;;;;;;;;;;;;6.47;100.00;100032.28;6159250;23;20340;-87
2023/05/30 20:33:12;;;;;;;;;;;;;;;6.44;100.00;100042.00;6160159;23;20375;-88
2023/05/30 20:35:48;;;;;;;;;;;;;;;;;;;;;
2023/05/30 20:38:42;;;;;;;;;;;;;;;6.31;100.00;100049.31;6186218;23;19988;-88
2023/05/30 20:41:08;;;;;;;;;;;;;;;6.50;100.00;100055.03;6143778;23;19924;-86
2023/05/30 20:46:19;;;;;;;;;;;;;;;6.40;100.00;100049.13;6186427;23;20356;-88
2023/05/30 20:49:04;;;;;;;;;;;;;;;6.29;100.00;100051.97;6186537;23;19916;-90
2023/05/30 20:51:38;;;;;;;;;;;;;;;6.27;100.00;100051.16;6185694;23;19916;-90
2023/05/30 20:57:13;;;;;;;;;;;;;;;6.40;100.00;100050.88;6148853;23;19919;-84
2023/05/30 21:00:09;;;;;;;;;;;;;;;;;;;;;
2023/05/30 21:05:23;;;;;;;;;;;;;;;6.30;100.00;100051.09;6125173;23;19913;-89
2023/05/30 21:08:08;;;;;;;;;;;;;;;6.25;100.00;100047.66;6186341;23;19912;-90
2023/05/30 21:10:46;;;;;;;;;;;;;;;;;;;;;
2023/05/30 21:13:41;;;;;;;;;;;;;;;6.25;100.00;100049.44;6183510;23;19989;-89
2023/05/30 21:16:32;;;;;;;;;;;;;;;6.44;100.00;100055.19;6170119;23;19912;-89
2023/05/30 21:18:58;;;;;;;;;;;;;;;6.36;100.00;100050.94;6159848;23;19994;-89
2023/05/30 21:21:30;;;;;;;;;;;;;;;6.26;100.00;100046.78;6160134;23;20590;-89
2023/05/30 21:24:11;;;;;;;;;;;;;;;;;;;;;
2023/05/30 21:26:57;;;;;;;;;;;;;;;6.44;100.00;100050.75;6186893;23;19987;-88
2023/05/30 21:29:32;;;;;;;;;;;;;;;;;;;;;
2023/05/30 21:32:36;;;;;;;;;;;;;;;;;;;;;
2023/05/30 21:35:16;;;;;;;;;;;;;;;6.40;100.00;100048.22;6175773;23;19912;-87
2023/05/30 21:40:52;;;;;;;;;;;;;;;;;;;;;
2023/05/30 21:43:36;;;;;;;;;;;;;;;6.36;100.00;100053.56;6063822;23;19933;-87
2023/05/30 21:55:44;;;;;;;;;;;;;;;6.26;100.00;100044.13;6118581;23;19913;-87
2023/05/30 21:58:27;;;;;;;;;;;;;;;;;;;;;
2023/05/30 22:04:38;;;;;;;;;;;;;;;6.44;100.00;100045.50;6118886;23;19913;-87
2023/05/30 22:07:34;;;;;;;;;;;;;;;;;;;;;
2023/05/30 22:09:51;;;;;;;;;;;;;;;6.41;100.00;100049.97;6175379;23;20327;-87
2023/05/30 22:12:21;;;;;;;;;;;;;;;6.30;100.00;100048.44;6159208;23;20380;-86
2023/05/30 22:14:55;;;;;;;;;;;;;;;6.46;100.00;100053.38;6184459;23;19916;-87
2023/05/30 22:17:51;;;;;;;;;;;;;;;6.38;100.00;100045.63;6159325;23;19952;-86
2023/05/30 22:20:17;;;;;;;;;;;;;;;6.34;100.00;100047.47;6157859;23;20342;-87
2023/05/30 22:22:42;;;;;;;;;;;;;;;6.56;100.00;100041.75;6185657;23;19919;-86
2023/05/30 22:25:07;;;;;;;;;;;;;;;6.80;100.00;100044.72;6184805;23;20011;-86
2023/05/30 22:27:33;;;;;;;;;;;;;;;6.50;100.00;100050.63;6185215;23;19912;-86
2023/05/30 22:29:58;;;;;;;;;;;;;;;6.88;100.00;100040.16;6184022;23;19995;-87
2023/05/30 22:32:33;;;;;;;;;;;;;;;;;;;;;
2023/05/30 22:35:01;;;;;;;;;;;;;;;6.71;100.00;100038.75;6185050;23;19999;-87
2023/05/30 22:37:54;;;;;;;;;;;;;;;6.76;100.00;100041.28;6185523;23;19908;-86